Time;durP1;ratioP1;P1;durP2;ratioP2;P2;SDS_P1;SDS_P2;PMS_P1;PMS_P2;Temp;Humidity;BMP_temperature;BMP_pressure;BME280_temperature;BME280_humidity;BME280_pressure;Samples;Min_cycle;Max_cycle;Signal;HPM_P1;HPM_P2
2023/10/28 00:00:26;;;;;;;8.45;7.65;;;;;;;;;;5041285;28;20053;-65
2023/10/28 00:02:51;;;;;;;7.72;6.93;;;;;;;;;;5040582;28;20040;-64
2023/10/28 00:05:18;;;;;;;7.03;6.25;;;;;;;;;;5040664;28;20049;-65
2023/10/28 00:07:44;;;;;;;6.82;6.15;;;;;;;;;;5042065;28;20057;-65
2023/10/28 00:10:10;;;;;;;7.40;6.65;;;;;;;;;;5041826;28;20111;-64
2023/10/28 00:12:36;;;;;;;6.30;5.70;;;;;;;;;;5041744;28;20115;-65
2023/10/28 00:15:03;;;;;;;7.53;6.78;;;;;;;;;;5042242;28;20483;-65
2023/10/28 00:17:29;;;;;;;7.47;6.63;;;;;;;;;;5042879;28;20044;-65
2023/10/28 00:19:55;;;;;;;9.18;7.35;;;;;;;;;;5041158;28;20110;-65
2023/10/28 00:22:21;;;;;;;8.25;7.20;;;;;;;;;;5040976;28;20087;-65
2023/10/28 00:24:48;;;;;;;9.23;8.10;;;;;;;;;;5041425;28;20077;-65
2023/10/28 00:27:14;;;;;;;8.05;7.15;;;;;;;;;;5038935;28;20069;-65
2023/10/28 00:29:40;;;;;;;8.63;7.32;;;;;;;;;;5041936;28;20351;-65
2023/10/28 00:32:06;;;;;;;7.85;7.15;;;;;;;;;;5040861;28;20067;-65
2023/10/28 00:34:32;;;;;;;7.25;6.55;;;;;;;;;;5040984;28;20052;-65
2023/10/28 00:36:59;;;;;;;7.95;6.93;;;;;;;;;;5041371;28;20041;-65
2023/10/28 00:39:25;;;;;;;7.32;6.63;;;;;;;;;;5039593;28;20062;-65
2023/10/28 00:41:51;;;;;;;6.38;5.78;;;;;;;;;;5041161;28;20064;-65
2023/10/28 00:44:17;;;;;;;6.25;5.63;;;;;;;;;;5040378;28;20095;-65
2023/10/28 00:46:44;;;;;;;7.50;6.68;;;;;;;;;;5041266;28;20076;-65
2023/10/28 00:49:10;;;;;;;5.80;5.25;;;;;;;;;;5040372;28;20144;-65
2023/10/28 00:51:36;;;;;;;6.82;5.28;;;;;;;;;;5040396;28;20079;-65
2023/10/28 00:54:02;;;;;;;6.50;5.45;;;;;;;;;;5041596;28;20051;-65
2023/10/28 00:56:29;;;;;;;6.95;6.35;;;;;;;;;;5040801;28;20106;-64
2023/10/28 00:58:55;;;;;;;6.57;5.90;;;;;;;;;;5040937;28;20569;-65
2023/10/28 01:01:21;;;;;;;6.35;5.75;;;;;;;;;;5039727;28;20053;-64
2023/10/28 01:03:47;;;;;;;7.25;6.55;;;;;;;;;;5039053;28;20110;-65
2023/10/28 01:06:14;;;;;;;7.32;6.53;;;;;;;;;;5040770;28;20069;-65
2023/10/28 01:08:40;;;;;;;7.93;6.75;;;;;;;;;;5042347;28;20114;-65
2023/10/28 01:11:06;;;;;;;9.13;6.93;;;;;;;;;;5040437;28;20475;-65
2023/10/28 01:13:32;;;;;;;7.40;6.68;;;;;;;;;;5040841;28;20037;-65
2023/10/28 01:15:59;;;;;;;6.47;5.88;;;;;;;;;;5041273;28;20047;-65
2023/10/28 01:18:26;;;;;;;8.45;7.57;;;;;;;;;;5040571;28;20072;-65
2023/10/28 01:20:52;;;;;;;9.63;8.63;;;;;;;;;;5042640;28;20041;-66
2023/10/28 01:23:18;;;;;;;8.98;7.85;;;;;;;;;;5040248;28;20447;-65
2023/10/28 01:25:44;;;;;;;7.05;6.35;;;;;;;;;;5041765;28;20102;-65
2023/10/28 01:28:11;;;;;;;7.07;6.38;;;;;;;;;;5040334;28;20088;-65
2023/10/28 01:30:37;;;;;;;11.27;9.35;;;;;;;;;;5041394;28;20053;-65
2023/10/28 01:33:04;;;;;;;10.10;8.32;;;;;;;;;;5040363;28;20581;-65
2023/10/28 01:35:31;;;;;;;10.13;9.02;;;;;;;;;;5039461;28;20053;-65
2023/10/28 01:37:58;;;;;;;9.52;8.50;;;;;;;;;;5040636;28;20051;-65
2023/10/28 01:40:24;;;;;;;8.43;7.63;;;;;;;;;;5041796;28;20343;-65
2023/10/28 01:42:50;;;;;;;9.77;7.88;;;;;;;;;;5040551;28;20056;-65
2023/10/28 01:45:16;;;;;;;11.05;8.57;;;;;;;;;;5040755;28;20044;-65
2023/10/28 01:47:43;;;;;;;12.50;10.02;;;;;;;;;;5042284;28;20063;-65
2023/10/28 01:50:12;;;;;;;11.35;9.05;;;;;;;;;;5039789;28;20503;-65
2023/10/28 01:52:39;;;;;;;10.50;9.10;;;;;;;;;;5040797;28;20044;-65
2023/10/28 01:55:05;;;;;;;11.93;10.02;;;;;;;;;;5039902;28;20122;-64
2023/10/28 01:57:31;;;;;;;9.77;8.68;;;;;;;;;;5038660;28;20496;-65
2023/10/28 01:59:59;;;;;;;10.45;9.43;;;;;;;;;;5040074;28;20075;-65
2023/10/28 02:02:25;;;;;;;12.68;9.60;;;;;;;;;;5040980;28;20052;-65
2023/10/28 02:04:52;;;;;;;12.30;10.45;;;;;;;;;;5039164;28;20172;-65
2023/10/28 02:07:18;;;;;;;17.17;12.00;;;;;;;;;;5039025;28;20143;-65
2023/10/28 02:09:44;;;;;;;12.23;10.32;;;;;;;;;;5042085;28;20041;-65
2023/10/28 02:12:10;;;;;;;13.07;10.40;;;;;;;;;;5038806;28;20052;-65
2023/10/28 02:14:36;;;;;;;12.15;10.45;;;;;;;;;;5041345;28;20048;-65
2023/10/28 02:17:02;;;;;;;9.93;8.77;;;;;;;;;;5040122;28;20403;-64
2023/10/28 02:19:29;;;;;;;11.07;9.00;;;;;;;;;;5040357;28;20406;-64
2023/10/28 02:21:55;;;;;;;9.55;8.25;;;;;;;;;;5039982;28;20049;-64
2023/10/28 02:24:22;;;;;;;9.75;8.30;;;;;;;;;;5040773;28;20487;-65
2023/10/28 02:26:48;;;;;;;12.57;8.95;;;;;;;;;;5040982;28;20049;-65
2023/10/28 02:29:14;;;;;;;11.15;9.10;;;;;;;;;;5042381;28;20088;-65
2023/10/28 02:31:40;;;;;;;13.82;10.98;;;;;;;;;;5039479;28;20068;-65
2023/10/28 02:34:07;;;;;;;12.07;10.02;;;;;;;;;;5039877;28;20052;-65
2023/10/28 02:36:33;;;;;;;12.05;9.48;;;;;;;;;;5039435;28;20070;-65
2023/10/28 02:39:00;;;;;;;10.18;8.85;;;;;;;;;;5039140;28;20045;-65
2023/10/28 02:41:26;;;;;;;11.00;9.35;;;;;;;;;;5040012;28;20055;-65
2023/10/28 02:43:52;;;;;;;9.38;8.35;;;;;;;;;;5041480;28;20044;-65
2023/10/28 02:46:22;;;;;;;8.35;7.45;;;;;;;;;;5039414;28;20053;-65
2023/10/28 02:48:48;;;;;;;8.63;7.32;;;;;;;;;;5041365;28;20033;-65
2023/10/28 02:51:14;;;;;;;7.50;6.72;;;;;;;;;;5040971;28;20049;-65
2023/10/28 02:53:40;;;;;;;8.82;7.63;;;;;;;;;;5039601;28;20041;-65
2023/10/28 02:56:06;;;;;;;11.38;7.50;;;;;;;;;;5040933;28;20045;-65
2023/10/28 02:58:32;;;;;;;9.25;7.40;;;;;;;;;;5039134;28;20513;-65
2023/10/28 03:01:06;;;;;;;7.30;6.53;;;;;;;;;;5038115;28;20377;-65
2023/10/28 03:03:32;;;;;;;6.82;6.13;;;;;;;;;;5040866;28;20048;-65
2023/10/28 03:05:58;;;;;;;6.72;5.85;;;;;;;;;;5039175;28;20049;-65
2023/10/28 03:08:25;;;;;;;7.38;6.57;;;;;;;;;;5039894;28;20147;-65
2023/10/28 03:10:51;;;;;;;7.10;5.90;;;;;;;;;;5039727;28;20547;-65
2023/10/28 03:13:17;;;;;;;7.43;6.70;;;;;;;;;;5040425;28;20051;-65
2023/10/28 03:15:46;;;;;;;9.23;8.10;;;;;;;;;;5042977;28;20132;-65
2023/10/28 03:18:13;;;;;;;13.18;9.30;;;;;;;;;;5045276;28;20045;-65
2023/10/28 03:20:39;;;;;;;10.13;8.88;;;;;;;;;;5043466;28;20128;-65
2023/10/28 03:23:05;;;;;;;11.65;9.32;;;;;;;;;;5043901;28;20121;-65
2023/10/28 03:25:32;;;;;;;9.05;8.07;;;;;;;;;;5042490;28;20045;-65
2023/10/28 03:28:01;;;;;;;8.75;7.32;;;;;;;;;;5043809;28;20040;-65
2023/10/28 03:30:27;;;;;;;9.35;7.93;;;;;;;;;;5042832;28;20061;-65
2023/10/28 03:32:53;;;;;;;7.47;6.75;;;;;;;;;;5044046;28;20399;-65
2023/10/28 03:35:19;;;;;;;9.98;7.85;;;;;;;;;;5040158;28;20057;-65
2023/10/28 03:37:45;;;;;;;9.05;7.72;;;;;;;;;;5043922;28;20232;-65
2023/10/28 03:40:12;;;;;;;8.80;7.35;;;;;;;;;;5043464;28;20105;-65
2023/10/28 03:42:38;;;;;;;8.43;7.63;;;;;;;;;;5042469;28;20079;-65
2023/10/28 03:45:05;;;;;;;7.78;6.50;;;;;;;;;;5044377;28;20132;-65
2023/10/28 03:47:31;;;;;;;7.05;5.80;;;;;;;;;;5043980;28;20048;-65
2023/10/28 03:49:57;;;;;;;8.63;6.60;;;;;;;;;;5043077;28;20040;-65
2023/10/28 03:52:23;;;;;;;8.63;6.38;;;;;;;;;;5041902;28;20049;-65
2023/10/28 03:54:49;;;;;;;7.05;6.25;;;;;;;;;;5044438;28;20041;-65
2023/10/28 03:57:15;;;;;;;7.38;6.53;;;;;;;;;;5042837;28;20037;-65
2023/10/28 03:59:41;;;;;;;6.82;6.18;;;;;;;;;;5043393;28;20427;-65
2023/10/28 04:02:07;;;;;;;7.57;5.95;;;;;;;;;;5042671;28;20124;-65
2023/10/28 04:04:33;;;;;;;6.28;5.63;;;;;;;;;;5042481;28;20098;-65
2023/10/28 04:06:59;;;;;;;5.85;5.25;;;;;;;;;;5041832;28;20090;-65
2023/10/28 04:09:25;;;;;;;5.78;5.28;;;;;;;;;;5041969;28;20162;-65
2023/10/28 04:11:51;;;;;;;6.50;5.88;;;;;;;;;;5041074;28;20491;-65
2023/10/28 04:14:17;;;;;;;6.07;5.07;;;;;;;;;;5041958;28;20040;-65
2023/10/28 04:16:43;;;;;;;4.57;4.15;;;;;;;;;;5041943;28;20110;-65
2023/10/28 04:19:09;;;;;;;7.85;6.50;;;;;;;;;;5041353;28;20060;-64
2023/10/28 04:21:35;;;;;;;7.53;6.75;;;;;;;;;;5042770;28;20049;-65
2023/10/28 04:24:01;;;;;;;6.95;6.25;;;;;;;;;;5042119;28;20048;-65
2023/10/28 04:26:27;;;;;;;7.88;6.63;;;;;;;;;;5042375;28;20045;-65
2023/10/28 04:28:53;;;;;;;6.50;5.90;;;;;;;;;;5041276;28;20499;-65
2023/10/28 04:31:19;;;;;;;5.80;5.10;;;;;;;;;;5039250;28;20048;-65
2023/10/28 04:33:45;;;;;;;5.13;4.38;;;;;;;;;;5043084;28;20052;-65
2023/10/28 04:36:12;;;;;;;6.28;5.10;;;;;;;;;;5041962;28;20045;-64
2023/10/28 04:38:40;;;;;;;4.97;4.47;;;;;;;;;;5043568;28;20044;-65
2023/10/28 04:41:08;;;;;;;5.60;5.10;;;;;;;;;;5042575;28;20044;-65
2023/10/28 04:43:34;;;;;;;7.80;6.35;;;;;;;;;;5043716;28;20053;-64
2023/10/28 04:46:00;;;;;;;8.10;6.55;;;;;;;;;;5042274;28;20041;-65
2023/10/28 04:48:29;;;;;;;7.32;5.95;;;;;;;;;;5041186;28;20059;-65
2023/10/28 04:50:56;;;;;;;6.55;5.60;;;;;;;;;;5040900;28;20056;-65
2023/10/28 04:53:24;;;;;;;8.18;6.18;;;;;;;;;;5040129;28;20053;-65
2023/10/28 04:55:51;;;;;;;8.18;6.40;;;;;;;;;;5041037;28;20048;-65
2023/10/28 04:58:17;;;;;;;11.85;8.05;;;;;;;;;;5041838;28;20096;-65
2023/10/28 05:00:45;;;;;;;10.80;7.22;;;;;;;;;;5041971;28;20520;-65
2023/10/28 05:03:12;;;;;;;10.65;7.55;;;;;;;;;;5040181;28;20061;-65
2023/10/28 05:05:38;;;;;;;7.95;7.15;;;;;;;;;;5041366;28;20059;-64
2023/10/28 05:08:05;;;;;;;9.90;8.15;;;;;;;;;;5038601;28;20159;-65
2023/10/28 05:10:31;;;;;;;8.98;7.95;;;;;;;;;;5040699;28;20055;-65
2023/10/28 05:12:57;;;;;;;8.88;7.95;;;;;;;;;;5041179;28;20111;-65
2023/10/28 05:15:23;;;;;;;10.35;7.93;;;;;;;;;;5041512;28;20049;-65
2023/10/28 05:17:50;;;;;;;7.47;6.50;;;;;;;;;;5042845;28;20055;-64
2023/10/28 05:20:16;;;;;;;7.07;6.38;;;;;;;;;;5041438;28;20106;-65
2023/10/28 05:22:42;;;;;;;7.70;6.68;;;;;;;;;;5042166;28;20040;-64
2023/10/28 05:25:09;;;;;;;6.75;5.82;;;;;;;;;;5042520;28;20057;-64
2023/10/28 05:27:36;;;;;;;7.85;7.05;;;;;;;;;;5040866;28;20052;-65
2023/10/28 05:30:03;;;;;;;9.38;7.75;;;;;;;;;;5040808;28;20049;-65
2023/10/28 05:32:32;;;;;;;8.38;7.43;;;;;;;;;;5040232;28;20172;-65
2023/10/28 05:34:58;;;;;;;9.75;8.52;;;;;;;;;;5041286;28;20041;-65
2023/10/28 05:37:24;;;;;;;7.03;6.40;;;;;;;;;;5041342;28;20055;-65
2023/10/28 05:39:50;;;;;;;7.82;7.03;;;;;;;;;;5041018;28;20048;-65
2023/10/28 05:42:16;;;;;;;7.75;7.00;;;;;;;;;;5040896;28;20053;-64
2023/10/28 05:44:43;;;;;;;9.75;7.43;;;;;;;;;;5041573;28;20100;-64
2023/10/28 05:47:10;;;;;;;10.25;7.18;;;;;;;;;;5040406;28;20111;-64
2023/10/28 05:49:36;;;;;;;10.63;8.50;;;;;;;;;;5039907;28;20056;-64
2023/10/28 05:52:02;;;;;;;7.85;6.47;;;;;;;;;;5040097;28;20045;-65
2023/10/28 05:54:28;;;;;;;7.20;6.53;;;;;;;;;;5040283;28;20107;-64
2023/10/28 05:56:54;;;;;;;6.82;6.20;;;;;;;;;;5040058;28;20390;-64
2023/10/28 05:59:20;;;;;;;8.27;6.18;;;;;;;;;;5040302;28;20049;-65
2023/10/28 06:01:46;;;;;;;9.95;7.03;;;;;;;;;;5040613;28;20127;-64
2023/10/28 06:04:12;;;;;;;10.40;8.40;;;;;;;;;;5039584;28;20075;-64
2023/10/28 06:06:39;;;;;;;10.38;8.93;;;;;;;;;;5041352;28;20488;-65
2023/10/28 06:09:05;;;;;;;11.45;7.82;;;;;;;;;;5041775;28;20087;-64
2023/10/28 06:11:31;;;;;;;10.48;7.68;;;;;;;;;;5039353;28;20056;-65
2023/10/28 06:13:57;;;;;;;8.95;7.22;;;;;;;;;;5040327;28;20049;-64
2023/10/28 06:16:23;;;;;;;9.32;7.25;;;;;;;;;;5037318;28;20109;-65
2023/10/28 06:18:49;;;;;;;8.68;7.75;;;;;;;;;;5040007;28;20037;-65
2023/10/28 06:21:15;;;;;;;12.40;8.40;;;;;;;;;;5041062;28;20490;-65
2023/10/28 06:23:42;;;;;;;10.27;7.40;;;;;;;;;;5041549;28;20582;-65
2023/10/28 06:26:08;;;;;;;8.95;7.72;;;;;;;;;;5040293;28;20146;-65
2023/10/28 06:28:37;;;;;;;7.72;6.50;;;;;;;;;;5040762;28;20465;-65
2023/10/28 06:31:03;;;;;;;10.43;8.15;;;;;;;;;;5040609;28;20103;-65
2023/10/28 06:33:30;;;;;;;8.20;6.95;;;;;;;;;;5041048;28;20076;-65
2023/10/28 06:35:56;;;;;;;10.65;8.43;;;;;;;;;;5040717;28;20052;-65
2023/10/28 06:38:25;;;;;;;9.40;8.02;;;;;;;;;;5040617;28;20049;-65
2023/10/28 06:40:51;;;;;;;10.52;8.32;;;;;;;;;;5042058;28;20063;-65
2023/10/28 06:43:22;;;;;;;8.27;7.30;;;;;;;;;;5040615;28;20041;-65
2023/10/28 06:45:48;;;;;;;8.38;7.55;;;;;;;;;;5040548;28;20052;-65
2023/10/28 06:48:15;;;;;;;7.18;6.43;;;;;;;;;;5041346;28;20049;-64
2023/10/28 06:50:41;;;;;;;7.82;7.13;;;;;;;;;;5044900;28;20402;-65
2023/10/28 06:53:09;;;;;;;7.13;6.47;;;;;;;;;;5044592;28;20087;-65
2023/10/28 06:55:35;;;;;;;9.10;6.28;;;;;;;;;;5044491;28;20049;-65
2023/10/28 06:58:01;;;;;;;8.73;7.90;;;;;;;;;;5044420;28;20511;-65
2023/10/28 07:00:27;;;;;;;9.18;6.70;;;;;;;;;;5044004;28;20114;-65
2023/10/28 07:02:54;;;;;;;7.68;6.97;;;;;;;;;;5042868;28;20562;-65
2023/10/28 07:05:20;;;;;;;7.20;6.50;;;;;;;;;;5044671;28;20122;-65
2023/10/28 07:07:46;;;;;;;7.15;6.03;;;;;;;;;;5042972;28;20063;-65
2023/10/28 07:10:15;;;;;;;7.43;6.68;;;;;;;;;;5045010;28;20483;-64
2023/10/28 07:12:41;;;;;;;8.35;7.18;;;;;;;;;;5043343;28;20045;-64
2023/10/28 07:15:11;;;;;;;7.00;6.30;;;;;;;;;;5042054;28;20045;-65
2023/10/28 07:17:37;;;;;;;6.65;5.63;;;;;;;;;;5038073;28;20696;-64
2023/10/28 07:20:04;;;;;;;6.95;6.28;;;;;;;;;;5042771;28;20356;-64
2023/10/28 07:22:31;;;;;;;7.60;6.00;;;;;;;;;;5044489;28;20139;-65
2023/10/28 07:24:57;;;;;;;6.18;5.57;;;;;;;;;;5043264;28;20378;-65
2023/10/28 07:27:23;;;;;;;4.47;4.07;;;;;;;;;;5042470;28;20377;-65
2023/10/28 07:29:50;;;;;;;6.20;5.03;;;;;;;;;;5046086;28;20574;-65
2023/10/28 07:32:16;;;;;;;5.53;4.75;;;;;;;;;;5044363;28;20223;-65
2023/10/28 07:34:42;;;;;;;4.93;4.50;;;;;;;;;;5043085;28;20049;-64
2023/10/28 07:37:08;;;;;;;7.45;5.43;;;;;;;;;;5046402;28;20037;-64
2023/10/28 07:39:34;;;;;;;5.20;4.80;;;;;;;;;;5045763;28;20141;-64
2023/10/28 07:42:00;;;;;;;7.65;5.22;;;;;;;;;;5044082;28;20049;-63
2023/10/28 07:44:27;;;;;;;6.25;5.13;;;;;;;;;;5046145;28;20122;-64
2023/10/28 07:46:53;;;;;;;5.03;4.53;;;;;;;;;;5045939;28;20283;-64
2023/10/28 07:49:19;;;;;;;4.75;4.35;;;;;;;;;;5044543;28;20096;-64
2023/10/28 07:51:45;;;;;;;4.93;4.53;;;;;;;;;;5045559;28;20037;-64
2023/10/28 07:54:11;;;;;;;7.70;4.97;;;;;;;;;;5043576;28;20567;-64
2023/10/28 07:56:37;;;;;;;6.13;4.38;;;;;;;;;;5045369;28;20095;-65
2023/10/28 07:59:03;;;;;;;5.15;4.13;;;;;;;;;;5044077;28;20454;-64
2023/10/28 08:01:32;;;;;;;4.40;3.97;;;;;;;;;;5045819;28;20123;-64
2023/10/28 08:03:58;;;;;;;5.47;4.40;;;;;;;;;;5044143;28;20578;-64
2023/10/28 08:06:24;;;;;;;5.82;4.20;;;;;;;;;;5045427;28;20052;-64
2023/10/28 08:08:53;;;;;;;5.28;4.22;;;;;;;;;;5045692;28;20385;-64
2023/10/28 08:11:21;;;;;;;5.65;4.22;;;;;;;;;;5043824;28;20479;-65
2023/10/28 08:13:49;;;;;;;4.18;3.83;;;;;;;;;;5043153;28;20036;-64
2023/10/28 08:16:18;;;;;;;4.30;3.70;;;;;;;;;;5038995;28;20409;-65
2023/10/28 08:18:44;;;;;;;3.90;3.58;;;;;;;;;;5057214;28;20640;-65
2023/10/28 08:21:13;;;;;;;4.22;3.80;;;;;;;;;;5042552;28;20075;-65
2023/10/28 08:23:39;;;;;;;5.28;3.88;;;;;;;;;;5044140;28;20136;-65
2023/10/28 08:26:08;;;;;;;3.88;3.55;;;;;;;;;;5043682;28;20492;-65
2023/10/28 08:28:34;;;;;;;4.40;3.90;;;;;;;;;;5044366;28;20063;-63
2023/10/28 08:31:00;;;;;;;4.72;4.22;;;;;;;;;;5044769;28;20052;-63
2023/10/28 08:33:26;;;;;;;4.20;3.40;;;;;;;;;;5044011;28;20491;-65
2023/10/28 08:35:56;;;;;;;4.07;3.72;;;;;;;;;;5046043;28;20045;-67
2023/10/28 08:38:22;;;;;;;4.15;3.55;;;;;;;;;;5042479;28;20463;-66
2023/10/28 08:40:50;;;;;;;3.58;3.28;;;;;;;;;;5045244;28;20041;-65
2023/10/28 08:43:17;;;;;;;3.75;3.00;;;;;;;;;;5044013;28;20306;-65
2023/10/28 08:45:45;;;;;;;5.18;3.03;;;;;;;;;;5043778;28;20048;-63
2023/10/28 08:48:13;;;;;;;4.50;3.13;;;;;;;;;;5043392;28;20133;-64
2023/10/28 08:50:43;;;;;;;5.00;3.15;;;;;;;;;;5043863;28;20048;-64
2023/10/28 08:53:09;;;;;;;4.30;2.70;;;;;;;;;;5045218;28;20068;-64
2023/10/28 08:55:36;;;;;;;3.80;3.50;;;;;;;;;;5043518;28;20092;-64
2023/10/28 08:58:03;;;;;;;4.75;3.75;;;;;;;;;;5044408;28;20049;-63
2023/10/28 09:00:30;;;;;;;4.32;3.58;;;;;;;;;;5042755;28;20056;-63
2023/10/28 09:02:57;;;;;;;6.03;3.70;;;;;;;;;;5045630;28;20048;-63
2023/10/28 09:05:24;;;;;;;4.40;4.00;;;;;;;;;;5044344;28;20055;-64
2023/10/28 09:07:52;;;;;;;7.07;3.92;;;;;;;;;;5044930;28;20055;-63
2023/10/28 09:10:18;;;;;;;4.35;3.92;;;;;;;;;;5044287;28;20480;-63
2023/10/28 09:12:44;;;;;;;5.22;3.83;;;;;;;;;;5042861;28;20231;-64
2023/10/28 09:15:11;;;;;;;3.97;3.47;;;;;;;;;;5043749;28;20340;-63
2023/10/28 09:17:39;;;;;;;3.63;3.30;;;;;;;;;;5041348;28;20049;-63
2023/10/28 09:20:09;;;;;;;5.20;3.70;;;;;;;;;;5036710;28;20139;-63
2023/10/28 09:22:40;;;;;;;4.65;3.55;;;;;;;;;;5034709;28;20049;-64
2023/10/28 09:25:06;;;;;;;2.85;2.65;;;;;;;;;;5041071;28;20045;-63
2023/10/28 09:27:32;;;;;;;2.90;2.70;;;;;;;;;;5039803;28;20087;-64
2023/10/28 09:30:05;;;;;;;2.70;2.50;;;;;;;;;;5041553;28;20063;-63
2023/10/28 09:32:33;;;;;;;3.70;2.35;;;;;;;;;;5041607;28;20053;-63
2023/10/28 09:35:03;;;;;;;3.22;2.70;;;;;;;;;;5041640;28;20119;-64
2023/10/28 09:37:30;;;;;;;2.95;2.47;;;;;;;;;;5042901;28;20127;-64
2023/10/28 09:39:57;;;;;;;3.95;3.65;;;;;;;;;;5041342;28;20456;-63
2023/10/28 09:42:24;;;;;;;3.75;3.38;;;;;;;;;;5040905;28;20102;-64
2023/10/28 09:44:51;;;;;;;3.78;3.53;;;;;;;;;;5042220;28;20263;-64
2023/10/28 09:47:21;;;;;;;3.47;3.17;;;;;;;;;;5043209;28;20346;-64
2023/10/28 09:49:50;;;;;;;5.68;3.70;;;;;;;;;;5041677;28;20037;-63
2023/10/28 09:52:17;;;;;;;4.75;3.80;;;;;;;;;;5042490;28;20279;-64
2023/10/28 09:54:43;;;;;;;5.03;3.65;;;;;;;;;;5042269;28;20186;-64
2023/10/28 09:57:10;;;;;;;2.45;2.25;;;;;;;;;;5044391;28;20064;-64
2023/10/28 09:59:39;;;;;;;5.45;2.50;;;;;;;;;;5043275;28;20056;-64
2023/10/28 10:02:25;;;;;;;4.53;2.90;;;;;;;;;;5042217;28;20073;-63
2023/10/28 10:05:21;;;;;;;3.63;2.80;;;;;;;;;;5035703;28;20052;-64
2023/10/28 10:07:47;;;;;;;3.00;2.65;;;;;;;;;;5021115;28;20053;-63
2023/10/28 10:10:15;;;;;;;3.30;2.20;;;;;;;;;;5042867;28;20407;-64
2023/10/28 10:12:41;;;;;;;2.40;2.20;;;;;;;;;;5042894;28;20057;-64
2023/10/28 10:15:13;;;;;;;3.90;3.05;;;;;;;;;;5042663;28;20053;-63
2023/10/28 10:17:59;;;;;;;3.10;2.53;;;;;;;;;;5042371;28;20048;-64
2023/10/28 10:20:25;;;;;;;5.00;2.95;;;;;;;;;;5037189;28;20049;-64
2023/10/28 10:23:01;;;;;;;3.72;2.53;;;;;;;;;;5044544;28;20090;-63
2023/10/28 10:25:46;;;;;;;3.03;2.70;;;;;;;;;;5047024;28;20053;-64
2023/10/28 10:28:18;;;;;;;3.83;2.53;;;;;;;;;;5038583;28;20040;-63
2023/10/28 10:30:44;;;;;;;2.60;2.33;;;;;;;;;;5047635;28;20280;-64
2023/10/28 10:33:11;;;;;;;4.55;2.22;;;;;;;;;;5046847;28;20446;-64
2023/10/28 10:35:38;;;;;;;2.45;2.25;;;;;;;;;;5048261;28;20047;-64
2023/10/28 10:38:05;;;;;;;2.58;2.38;;;;;;;;;;5046523;28;20476;-64
2023/10/28 10:40:32;;;;;;;4.20;2.83;;;;;;;;;;5046867;28;20503;-64
2023/10/28 10:43:08;;;;;;;2.47;2.28;;;;;;;;;;5046613;28;20476;-63
2023/10/28 10:45:35;;;;;;;3.20;2.05;;;;;;;;;;5054893;28;20049;-63
2023/10/28 10:48:02;;;;;;;1.80;1.70;;;;;;;;;;5046609;28;20509;-64
2023/10/28 10:50:29;;;;;;;2.08;1.98;;;;;;;;;;5046596;28;20144;-64
2023/10/28 10:52:56;;;;;;;2.63;2.40;;;;;;;;;;5045569;28;20033;-64
2023/10/28 10:55:23;;;;;;;2.63;2.40;;;;;;;;;;5046853;28;20471;-64
2023/10/28 10:57:50;;;;;;;3.38;2.28;;;;;;;;;;5046869;28;20041;-64
2023/10/28 11:00:17;;;;;;;2.38;2.17;;;;;;;;;;5045422;28;20049;-64
2023/10/28 11:02:43;;;;;;;1.75;1.52;;;;;;;;;;5046270;28;20413;-63
2023/10/28 11:05:11;;;;;;;2.72;1.88;;;;;;;;;;5045461;28;20072;-64
2023/10/28 11:07:37;;;;;;;2.13;1.80;;;;;;;;;;5047219;28;20127;-64
2023/10/28 11:10:04;;;;;;;2.03;1.80;;;;;;;;;;5046355;28;20479;-64
2023/10/28 11:12:31;;;;;;;2.33;1.52;;;;;;;;;;5045498;28;20060;-64
2023/10/28 11:14:57;;;;;;;1.92;1.80;;;;;;;;;;5045861;28;20115;-64
2023/10/28 11:17:24;;;;;;;1.63;1.52;;;;;;;;;;5046561;28;20053;-64
2023/10/28 11:19:50;;;;;;;3.35;1.90;;;;;;;;;;5045794;28;20052;-64
2023/10/28 11:22:16;;;;;;;2.20;1.75;;;;;;;;;;5045994;28;20041;-64
2023/10/28 11:24:43;;;;;;;1.83;1.48;;;;;;;;;;5047368;28;20132;-64
2023/10/28 11:27:09;;;;;;;1.48;1.38;;;;;;;;;;5045080;28;20045;-64
2023/10/28 11:29:37;;;;;;;2.33;1.98;;;;;;;;;;5045653;28;20049;-64
2023/10/28 11:32:07;;;;;;;2.63;1.92;;;;;;;;;;5047186;28;20059;-64
2023/10/28 11:34:36;;;;;;;2.00;1.80;;;;;;;;;;5045389;28;20091;-64
2023/10/28 11:37:02;;;;;;;3.15;1.95;;;;;;;;;;5045404;28;20041;-64
2023/10/28 11:39:33;;;;;;;3.03;2.08;;;;;;;;;;5046057;28;20045;-64
2023/10/28 11:42:08;;;;;;;2.72;2.10;;;;;;;;;;5044994;28;20045;-63
2023/10/28 11:44:34;;;;;;;2.47;1.98;;;;;;;;;;5039251;28;20052;-63
2023/10/28 11:47:01;;;;;;;4.85;2.30;;;;;;;;;;5045545;28;20479;-64
2023/10/28 11:49:27;;;;;;;2.42;2.22;;;;;;;;;;5044427;28;20080;-64
2023/10/28 11:51:53;;;;;;;3.70;2.53;;;;;;;;;;5047184;28;20171;-64
2023/10/28 11:54:19;;;;;;;3.10;2.10;;;;;;;;;;5046190;28;20056;-64
2023/10/28 11:56:45;;;;;;;3.72;1.80;;;;;;;;;;5045188;28;20049;-63
2023/10/28 11:59:11;;;;;;;3.50;2.25;;;;;;;;;;5045210;28;20083;-64
2023/10/28 12:01:37;;;;;;;2.35;1.98;;;;;;;;;;5044408;28;20588;-63
2023/10/28 12:04:04;;;;;;;2.47;2.00;;;;;;;;;;5046274;28;20132;-64
2023/10/28 12:06:33;;;;;;;3.10;2.10;;;;;;;;;;5046091;28;20180;-63
2023/10/28 12:08:59;;;;;;;2.58;1.60;;;;;;;;;;5044225;28;20470;-64
2023/10/28 12:11:26;;;;;;;2.75;1.90;;;;;;;;;;5046991;28;20049;-64
2023/10/28 12:13:53;;;;;;;2.28;1.92;;;;;;;;;;5045880;28;20057;-64
2023/10/28 12:16:19;;;;;;;4.13;1.60;;;;;;;;;;5046013;28;20074;-64
2023/10/28 12:18:45;;;;;;;1.83;1.50;;;;;;;;;;5044625;28;20111;-63
2023/10/28 12:21:12;;;;;;;2.00;1.65;;;;;;;;;;5046119;28;20048;-64
2023/10/28 12:23:38;;;;;;;4.50;2.13;;;;;;;;;;5045375;28;20080;-64
2023/10/28 12:26:05;;;;;;;1.70;1.45;;;;;;;;;;5046184;28;20086;-65
2023/10/28 12:28:31;;;;;;;1.70;1.60;;;;;;;;;;5045385;28;20609;-64
2023/10/28 12:30:57;;;;;;;2.20;1.70;;;;;;;;;;5044090;28;20084;-64
2023/10/28 12:33:23;;;;;;;2.05;1.48;;;;;;;;;;5045223;28;20041;-64
2023/10/28 12:35:49;;;;;;;2.05;1.40;;;;;;;;;;5045008;28;20044;-64
2023/10/28 12:38:15;;;;;;;2.08;1.60;;;;;;;;;;5045183;28;20056;-64
2023/10/28 12:40:41;;;;;;;1.73;1.42;;;;;;;;;;5044404;28;20041;-64
2023/10/28 12:43:07;;;;;;;2.80;1.23;;;;;;;;;;5046205;28;20137;-64
2023/10/28 12:45:33;;;;;;;1.63;1.52;;;;;;;;;;5043389;28;20072;-63
2023/10/28 12:47:59;;;;;;;2.28;1.70;;;;;;;;;;5045639;28;20041;-64
2023/10/28 12:50:25;;;;;;;4.10;1.55;;;;;;;;;;5044490;28;20045;-64
2023/10/28 12:52:51;;;;;;;2.25;1.65;;;;;;;;;;5045653;28;20457;-64
2023/10/28 12:55:17;;;;;;;3.40;1.50;;;;;;;;;;5043907;28;20085;-64
2023/10/28 12:57:43;;;;;;;2.63;1.52;;;;;;;;;;5044991;28;20067;-64
2023/10/28 13:00:10;;;;;;;2.08;1.70;;;;;;;;;;5044739;28;20045;-63
2023/10/28 13:02:37;;;;;;;2.70;1.65;;;;;;;;;;5043847;28;20088;-64
2023/10/28 13:05:03;;;;;;;2.75;1.30;;;;;;;;;;5044594;28;20156;-64
2023/10/28 13:07:30;;;;;;;4.38;1.85;;;;;;;;;;5043617;28;20053;-64
2023/10/28 13:09:56;;;;;;;4.38;1.83;;;;;;;;;;5045395;28;20068;-64
2023/10/28 13:12:22;;;;;;;2.38;1.65;;;;;;;;;;5043394;28;20037;-64
2023/10/28 13:14:48;;;;;;;1.95;1.48;;;;;;;;;;5044792;28;20048;-64
2023/10/28 13:17:14;;;;;;;2.00;1.30;;;;;;;;;;5043572;28;20059;-64
2023/10/28 13:19:40;;;;;;;3.70;1.90;;;;;;;;;;5044222;28;20052;-64
2023/10/28 13:22:06;;;;;;;3.97;1.95;;;;;;;;;;5043536;28;20704;-64
2023/10/28 13:24:32;;;;;;;5.25;1.90;;;;;;;;;;5044943;28;20048;-64
2023/10/28 13:26:59;;;;;;;1.40;1.23;;;;;;;;;;5042859;28;20044;-64
2023/10/28 13:29:25;;;;;;;2.42;1.67;;;;;;;;;;5044018;28;20560;-64
2023/10/28 13:31:51;;;;;;;3.60;1.60;;;;;;;;;;5043925;28;20057;-64
2023/10/28 13:34:17;;;;;;;2.42;1.60;;;;;;;;;;5042891;28;20045;-63
2023/10/28 13:36:44;;;;;;;2.67;1.60;;;;;;;;;;5044945;28;20502;-64
2023/10/28 13:39:10;;;;;;;5.18;1.63;;;;;;;;;;5043475;28;20140;-64
2023/10/28 13:41:36;;;;;;;2.92;1.40;;;;;;;;;;5042445;28;20471;-63
2023/10/28 13:44:02;;;;;;;1.98;1.17;;;;;;;;;;5043164;28;20033;-64
2023/10/28 13:46:28;;;;;;;2.33;1.40;;;;;;;;;;5044729;28;20395;-64
2023/10/28 13:48:55;;;;;;;2.65;1.63;;;;;;;;;;5043420;28;20080;-64
2023/10/28 13:51:21;;;;;;;2.30;1.60;;;;;;;;;;5043541;28;20057;-64
2023/10/28 13:53:47;;;;;;;1.95;1.50;;;;;;;;;;5043159;28;20489;-64
2023/10/28 13:56:13;;;;;;;2.50;1.60;;;;;;;;;;5042766;28;20124;-63
2023/10/28 13:58:39;;;;;;;3.13;1.67;;;;;;;;;;5043886;28;20048;-64
2023/10/28 14:01:08;;;;;;;1.95;1.30;;;;;;;;;;5042225;28;20045;-64
2023/10/28 14:03:34;;;;;;;3.15;1.73;;;;;;;;;;5043193;28;20336;-64
2023/10/28 14:06:15;;;;;;;2.63;1.38;;;;;;;;;;5042756;28;20103;-64
2023/10/28 14:08:41;;;;;;;1.42;1.10;;;;;;;;;;5042735;28;20578;-63
2023/10/28 14:11:07;;;;;;;3.13;1.38;;;;;;;;;;5042650;28;20083;-64
2023/10/28 14:13:34;;;;;;;4.10;1.67;;;;;;;;;;5042922;28;20098;-64
2023/10/28 14:16:02;;;;;;;1.60;1.50;;;;;;;;;;5042067;28;20072;-64
2023/10/28 14:18:29;;;;;;;2.70;1.40;;;;;;;;;;5043517;28;20423;-63
2023/10/28 14:20:55;;;;;;;2.17;1.20;;;;;;;;;;5044257;28;20404;-64
2023/10/28 14:23:24;;;;;;;3.42;1.38;;;;;;;;;;5042401;28;20057;-64
2023/10/28 14:25:50;;;;;;;2.67;1.35;;;;;;;;;;5044901;28;20494;-64
2023/10/28 14:28:16;;;;;;;1.55;1.05;;;;;;;;;;5044298;28;20044;-64
2023/10/28 14:30:42;;;;;;;2.10;1.38;;;;;;;;;;5042207;28;20049;-64
2023/10/28 14:33:08;;;;;;;1.42;1.20;;;;;;;;;;5042630;28;20544;-64
2023/10/28 14:35:34;;;;;;;1.35;1.10;;;;;;;;;;5043873;28;20424;-64
2023/10/28 14:38:00;;;;;;;5.05;1.00;;;;;;;;;;5043378;28;20051;-64